sensor_id;sensor_type;location;lat;lon;timestamp;P1;durP1;ratioP1;P2;durP2;ratioP2
11797;SDS011;5956;51.428;6.682;2022-11-20T00:01:07;19.57;;;17.53;;
11797;SDS011;5956;51.428;6.682;2022-11-20T00:03:34;21.50;;;18.63;;
11797;SDS011;5956;51.428;6.682;2022-11-20T00:06:01;21.50;;;17.83;;
11797;SDS011;5956;51.428;6.682;2022-11-20T00:08:27;18.77;;;16.87;;
11797;SDS011;5956;51.428;6.682;2022-11-20T00:10:55;20.60;;;17.33;;
11797;SDS011;5956;51.428;6.682;2022-11-20T00:13:22;18.40;;;16.50;;
11797;SDS011;5956;51.428;6.682;2022-11-20T00:15:48;19.67;;;16.83;;
11797;SDS011;5956;51.428;6.682;2022-11-20T00:18:15;19.07;;;16.43;;
11797;SDS011;5956;51.428;6.682;2022-11-20T00:20:41;21.80;;;17.37;;
11797;SDS011;5956;51.428;6.682;2022-11-20T00:23:08;21.93;;;17.93;;
11797;SDS011;5956;51.428;6.682;2022-11-20T00:25:34;20.00;;;17.77;;
11797;SDS011;5956;51.428;6.682;2022-11-20T00:28:02;20.27;;;17.50;;
11797;SDS011;5956;51.428;6.682;2022-11-20T00:30:28;21.30;;;18.47;;
11797;SDS011;5956;51.428;6.682;2022-11-20T00:32:56;19.90;;;16.77;;
11797;SDS011;5956;51.428;6.682;2022-11-20T00:35:22;20.77;;;18.33;;
11797;SDS011;5956;51.428;6.682;2022-11-20T00:37:49;20.50;;;17.83;;
11797;SDS011;5956;51.428;6.682;2022-11-20T00:40:15;21.93;;;18.90;;
11797;SDS011;5956;51.428;6.682;2022-11-20T00:42:42;21.07;;;17.63;;
11797;SDS011;5956;51.428;6.682;2022-11-20T00:45:09;20.23;;;18.03;;
11797;SDS011;5956;51.428;6.682;2022-11-20T00:47:36;22.73;;;19.50;;
11797;SDS011;5956;51.428;6.682;2022-11-20T00:50:03;22.93;;;20.40;;
11797;SDS011;5956;51.428;6.682;2022-11-20T00:52:29;24.53;;;19.93;;
11797;SDS011;5956;51.428;6.682;2022-11-20T00:54:56;21.73;;;18.57;;
11797;SDS011;5956;51.428;6.682;2022-11-20T00:57:22;23.43;;;19.03;;
11797;SDS011;5956;51.428;6.682;2022-11-20T00:59:48;23.77;;;18.63;;
11797;SDS011;5956;51.428;6.682;2022-11-20T01:02:16;20.97;;;17.83;;
11797;SDS011;5956;51.428;6.682;2022-11-20T01:04:43;23.37;;;20.20;;
11797;SDS011;5956;51.428;6.682;2022-11-20T01:07:09;22.97;;;19.43;;
11797;SDS011;5956;51.428;6.682;2022-11-20T01:09:36;21.20;;;18.93;;
11797;SDS011;5956;51.428;6.682;2022-11-20T01:12:03;22.27;;;19.00;;
11797;SDS011;5956;51.428;6.682;2022-11-20T01:14:30;25.03;;;19.87;;
11797;SDS011;5956;51.428;6.682;2022-11-20T01:16:56;23.87;;;21.27;;
11797;SDS011;5956;51.428;6.682;2022-11-20T01:19:24;24.63;;;19.57;;
11797;SDS011;5956;51.428;6.682;2022-11-20T01:21:52;22.30;;;19.63;;
11797;SDS011;5956;51.428;6.682;2022-11-20T01:24:20;23.60;;;20.70;;
11797;SDS011;5956;51.428;6.682;2022-11-20T01:26:47;21.10;;;18.80;;
11797;SDS011;5956;51.428;6.682;2022-11-20T01:29:14;23.23;;;18.63;;
11797;SDS011;5956;51.428;6.682;2022-11-20T01:31:41;22.13;;;19.63;;
11797;SDS011;5956;51.428;6.682;2022-11-20T01:34:09;26.33;;;19.83;;
11797;SDS011;5956;51.428;6.682;2022-11-20T01:36:37;21.97;;;18.10;;
11797;SDS011;5956;51.428;6.682;2022-11-20T01:39:05;23.40;;;20.10;;
11797;SDS011;5956;51.428;6.682;2022-11-20T01:41:32;24.03;;;20.47;;
11797;SDS011;5956;51.428;6.682;2022-11-20T01:44:18;24.17;;;19.70;;
11797;SDS011;5956;51.428;6.682;2022-11-20T01:46:47;24.70;;;19.17;;
11797;SDS011;5956;51.428;6.682;2022-11-20T01:49:16;23.50;;;19.20;;
11797;SDS011;5956;51.428;6.682;2022-11-20T01:51:45;22.77;;;19.37;;
11797;SDS011;5956;51.428;6.682;2022-11-20T01:54:15;21.30;;;19.00;;
11797;SDS011;5956;51.428;6.682;2022-11-20T01:56:43;24.33;;;19.43;;
11797;SDS011;5956;51.428;6.682;2022-11-20T01:59:10;24.37;;;18.97;;
11797;SDS011;5956;51.428;6.682;2022-11-20T02:01:38;24.27;;;20.50;;
11797;SDS011;5956;51.428;6.682;2022-11-20T02:04:05;25.83;;;19.87;;
11797;SDS011;5956;51.428;6.682;2022-11-20T02:06:32;25.93;;;20.23;;
11797;SDS011;5956;51.428;6.682;2022-11-20T02:09:02;23.93;;;19.37;;
11797;SDS011;5956;51.428;6.682;2022-11-20T02:11:29;24.77;;;20.20;;
11797;SDS011;5956;51.428;6.682;2022-11-20T02:13:56;25.90;;;19.97;;
11797;SDS011;5956;51.428;6.682;2022-11-20T02:16:23;24.20;;;21.00;;
11797;SDS011;5956;51.428;6.682;2022-11-20T02:18:50;25.10;;;21.00;;
11797;SDS011;5956;51.428;6.682;2022-11-20T02:21:20;24.50;;;21.67;;
11797;SDS011;5956;51.428;6.682;2022-11-20T02:26:37;25.57;;;20.90;;
11797;SDS011;5956;51.428;6.682;2022-11-20T02:29:04;23.87;;;20.63;;
11797;SDS011;5956;51.428;6.682;2022-11-20T02:31:38;21.87;;;19.53;;
11797;SDS011;5956;51.428;6.682;2022-11-20T02:34:06;23.13;;;18.13;;
11797;SDS011;5956;51.428;6.682;2022-11-20T02:36:33;23.40;;;19.60;;
11797;SDS011;5956;51.428;6.682;2022-11-20T02:39:00;22.77;;;20.23;;
11797;SDS011;5956;51.428;6.682;2022-11-20T02:41:30;24.00;;;20.30;;
11797;SDS011;5956;51.428;6.682;2022-11-20T02:43:58;24.10;;;19.60;;
11797;SDS011;5956;51.428;6.682;2022-11-20T02:46:24;24.07;;;20.30;;
11797;SDS011;5956;51.428;6.682;2022-11-20T02:48:51;24.60;;;21.07;;
11797;SDS011;5956;51.428;6.682;2022-11-20T02:51:17;24.30;;;21.67;;
11797;SDS011;5956;51.428;6.682;2022-11-20T02:53:44;24.50;;;20.20;;
11797;SDS011;5956;51.428;6.682;2022-11-20T02:56:10;24.43;;;21.77;;
11797;SDS011;5956;51.428;6.682;2022-11-20T02:58:37;22.27;;;19.77;;
11797;SDS011;5956;51.428;6.682;2022-11-20T03:01:05;22.53;;;20.13;;
11797;SDS011;5956;51.428;6.682;2022-11-20T03:03:31;25.87;;;21.80;;
11797;SDS011;5956;51.428;6.682;2022-11-20T03:05:58;23.80;;;21.23;;
11797;SDS011;5956;51.428;6.682;2022-11-20T03:08:25;26.43;;;22.63;;
11797;SDS011;5956;51.428;6.682;2022-11-20T03:10:51;26.80;;;23.73;;
11797;SDS011;5956;51.428;6.682;2022-11-20T03:13:18;26.93;;;24.03;;
11797;SDS011;5956;51.428;6.682;2022-11-20T03:15:44;26.13;;;23.37;;
11797;SDS011;5956;51.428;6.682;2022-11-20T03:18:12;27.53;;;23.70;;
11797;SDS011;5956;51.428;6.682;2022-11-20T03:20:39;24.63;;;21.93;;
11797;SDS011;5956;51.428;6.682;2022-11-20T03:23:06;28.27;;;24.03;;
11797;SDS011;5956;51.428;6.682;2022-11-20T03:25:32;27.53;;;24.33;;
11797;SDS011;5956;51.428;6.682;2022-11-20T03:27:59;28.83;;;25.73;;
11797;SDS011;5956;51.428;6.682;2022-11-20T03:30:25;30.23;;;25.63;;
11797;SDS011;5956;51.428;6.682;2022-11-20T03:32:52;27.53;;;24.53;;
11797;SDS011;5956;51.428;6.682;2022-11-20T03:35:20;28.03;;;25.03;;
11797;SDS011;5956;51.428;6.682;2022-11-20T03:37:47;28.33;;;24.73;;
11797;SDS011;5956;51.428;6.682;2022-11-20T03:40:13;26.97;;;23.93;;
11797;SDS011;5956;51.428;6.682;2022-11-20T03:42:40;27.63;;;23.90;;
11797;SDS011;5956;51.428;6.682;2022-11-20T03:45:12;28.47;;;24.67;;
11797;SDS011;5956;51.428;6.682;2022-11-20T03:47:39;29.23;;;24.80;;
11797;SDS011;5956;51.428;6.682;2022-11-20T03:50:06;30.97;;;26.67;;
11797;SDS011;5956;51.428;6.682;2022-11-20T03:52:34;29.30;;;25.80;;
11797;SDS011;5956;51.428;6.682;2022-11-20T03:55:01;30.17;;;25.90;;
11797;SDS011;5956;51.428;6.682;2022-11-20T03:57:27;31.53;;;26.87;;
11797;SDS011;5956;51.428;6.682;2022-11-20T03:59:54;31.13;;;26.37;;
11797;SDS011;5956;51.428;6.682;2022-11-20T04:02:20;31.07;;;26.40;;
11797;SDS011;5956;51.428;6.682;2022-11-20T04:04:46;29.33;;;26.20;;
11797;SDS011;5956;51.428;6.682;2022-11-20T04:07:13;30.87;;;27.33;;
11797;SDS011;5956;51.428;6.682;2022-11-20T04:09:41;32.57;;;27.40;;
11797;SDS011;5956;51.428;6.682;2022-11-20T04:12:07;32.37;;;26.00;;
11797;SDS011;5956;51.428;6.682;2022-11-20T04:14:34;29.57;;;26.07;;
11797;SDS011;5956;51.428;6.682;2022-11-20T04:17:01;29.03;;;25.03;;
11797;SDS011;5956;51.428;6.682;2022-11-20T04:19:27;31.13;;;26.27;;
11797;SDS011;5956;51.428;6.682;2022-11-20T04:21:54;30.87;;;26.17;;
11797;SDS011;5956;51.428;6.682;2022-11-20T04:24:20;31.63;;;26.13;;
11797;SDS011;5956;51.428;6.682;2022-11-20T04:26:48;31.30;;;25.40;;
11797;SDS011;5956;51.428;6.682;2022-11-20T04:29:14;29.87;;;26.10;;
11797;SDS011;5956;51.428;6.682;2022-11-20T04:31:41;30.33;;;25.33;;
11797;SDS011;5956;51.428;6.682;2022-11-20T04:34:07;30.47;;;26.30;;
11797;SDS011;5956;51.428;6.682;2022-11-20T04:36:34;26.10;;;23.27;;
11797;SDS011;5956;51.428;6.682;2022-11-20T04:39:01;28.53;;;24.17;;
11797;SDS011;5956;51.428;6.682;2022-11-20T04:41:28;25.57;;;22.80;;
11797;SDS011;5956;51.428;6.682;2022-11-20T04:43:57;24.83;;;22.23;;
11797;SDS011;5956;51.428;6.682;2022-11-20T04:46:27;27.87;;;23.57;;
11797;SDS011;5956;51.428;6.682;2022-11-20T04:48:54;29.23;;;23.83;;
11797;SDS011;5956;51.428;6.682;2022-11-20T04:51:20;27.87;;;24.00;;
11797;SDS011;5956;51.428;6.682;2022-11-20T04:53:48;30.60;;;24.77;;
11797;SDS011;5956;51.428;6.682;2022-11-20T04:56:14;26.83;;;24.03;;
11797;SDS011;5956;51.428;6.682;2022-11-20T04:58:41;27.57;;;24.10;;
11797;SDS011;5956;51.428;6.682;2022-11-20T05:01:10;27.67;;;23.80;;
11797;SDS011;5956;51.428;6.682;2022-11-20T05:03:36;25.80;;;23.10;;
11797;SDS011;5956;51.428;6.682;2022-11-20T05:06:03;27.93;;;23.53;;
11797;SDS011;5956;51.428;6.682;2022-11-20T05:08:30;25.87;;;23.07;;
11797;SDS011;5956;51.428;6.682;2022-11-20T05:10:59;29.83;;;23.90;;
11797;SDS011;5956;51.428;6.682;2022-11-20T05:13:26;26.47;;;23.00;;
11797;SDS011;5956;51.428;6.682;2022-11-20T05:15:52;26.70;;;23.93;;
11797;SDS011;5956;51.428;6.682;2022-11-20T05:18:20;24.47;;;21.97;;
11797;SDS011;5956;51.428;6.682;2022-11-20T05:20:47;25.00;;;21.90;;
11797;SDS011;5956;51.428;6.682;2022-11-20T05:23:20;25.40;;;22.73;;
11797;SDS011;5956;51.428;6.682;2022-11-20T05:25:46;25.63;;;23.00;;
11797;SDS011;5956;51.428;6.682;2022-11-20T05:28:13;24.07;;;21.47;;
11797;SDS011;5956;51.428;6.682;2022-11-20T05:30:39;25.30;;;22.60;;
11797;SDS011;5956;51.428;6.682;2022-11-20T05:33:07;25.43;;;22.73;;
11797;SDS011;5956;51.428;6.682;2022-11-20T05:35:35;24.80;;;22.07;;
11797;SDS011;5956;51.428;6.682;2022-11-20T05:38:01;25.63;;;22.93;;
11797;SDS011;5956;51.428;6.682;2022-11-20T05:40:28;25.50;;;22.90;;
11797;SDS011;5956;51.428;6.682;2022-11-20T05:42:54;27.33;;;22.20;;
11797;SDS011;5956;51.428;6.682;2022-11-20T05:45:21;24.87;;;21.63;;
11797;SDS011;5956;51.428;6.682;2022-11-20T05:47:47;25.03;;;22.27;;
11797;SDS011;5956;51.428;6.682;2022-11-20T05:50:14;23.53;;;20.97;;
11797;SDS011;5956;51.428;6.682;2022-11-20T05:52:42;24.60;;;22.00;;
11797;SDS011;5956;51.428;6.682;2022-11-20T05:55:08;24.93;;;22.23;;
11797;SDS011;5956;51.428;6.682;2022-11-20T05:57:35;24.33;;;21.77;;
11797;SDS011;5956;51.428;6.682;2022-11-20T06:00:01;29.43;;;22.10;;
11797;SDS011;5956;51.428;6.682;2022-11-20T06:02:28;26.33;;;21.43;;
11797;SDS011;5956;51.428;6.682;2022-11-20T06:04:54;25.50;;;21.33;;
11797;SDS011;5956;51.428;6.682;2022-11-20T06:07:21;25.90;;;22.43;;
11797;SDS011;5956;51.428;6.682;2022-11-20T06:09:49;26.17;;;23.03;;
11797;SDS011;5956;51.428;6.682;2022-11-20T06:12:15;24.77;;;22.03;;
11797;SDS011;5956;51.428;6.682;2022-11-20T06:14:42;25.43;;;22.37;;
11797;SDS011;5956;51.428;6.682;2022-11-20T06:17:08;25.33;;;21.60;;
11797;SDS011;5956;51.428;6.682;2022-11-20T06:19:35;26.97;;;22.27;;
11797;SDS011;5956;51.428;6.682;2022-11-20T06:22:01;26.23;;;21.03;;
11797;SDS011;5956;51.428;6.682;2022-11-20T06:24:27;24.80;;;21.60;;
11797;SDS011;5956;51.428;6.682;2022-11-20T06:26:55;25.10;;;20.90;;
11797;SDS011;5956;51.428;6.682;2022-11-20T06:29:22;24.77;;;21.97;;
11797;SDS011;5956;51.428;6.682;2022-11-20T06:31:48;27.03;;;23.03;;
11797;SDS011;5956;51.428;6.682;2022-11-20T06:34:15;25.90;;;22.77;;
11797;SDS011;5956;51.428;6.682;2022-11-20T06:36:41;25.63;;;21.57;;
11797;SDS011;5956;51.428;6.682;2022-11-20T06:39:08;30.10;;;22.17;;
11797;SDS011;5956;51.428;6.682;2022-11-20T06:41:34;26.47;;;23.30;;
11797;SDS011;5956;51.428;6.682;2022-11-20T06:44:03;28.63;;;23.13;;
11797;SDS011;5956;51.428;6.682;2022-11-20T06:46:29;28.23;;;23.17;;
11797;SDS011;5956;51.428;6.682;2022-11-20T06:48:56;24.50;;;21.90;;
11797;SDS011;5956;51.428;6.682;2022-11-20T06:51:23;27.33;;;22.47;;
11797;SDS011;5956;51.428;6.682;2022-11-20T06:53:49;25.77;;;22.40;;
11797;SDS011;5956;51.428;6.682;2022-11-20T06:56:16;29.80;;;25.70;;
11797;SDS011;5956;51.428;6.682;2022-11-20T06:58:42;30.23;;;23.57;;
11797;SDS011;5956;51.428;6.682;2022-11-20T07:01:11;27.23;;;22.30;;
11797;SDS011;5956;51.428;6.682;2022-11-20T07:03:38;26.87;;;21.27;;
11797;SDS011;5956;51.428;6.682;2022-11-20T07:06:04;25.90;;;23.10;;
11797;SDS011;5956;51.428;6.682;2022-11-20T07:08:31;25.37;;;22.67;;
11797;SDS011;5956;51.428;6.682;2022-11-20T07:10:58;27.17;;;23.60;;
11797;SDS011;5956;51.428;6.682;2022-11-20T07:13:25;26.00;;;22.47;;
11797;SDS011;5956;51.428;6.682;2022-11-20T07:15:52;27.07;;;23.87;;
11797;SDS011;5956;51.428;6.682;2022-11-20T07:18:20;26.30;;;23.53;;
11797;SDS011;5956;51.428;6.682;2022-11-20T07:20:46;25.57;;;22.27;;
11797;SDS011;5956;51.428;6.682;2022-11-20T07:23:13;25.03;;;21.23;;
11797;SDS011;5956;51.428;6.682;2022-11-20T07:25:40;28.03;;;22.10;;
11797;SDS011;5956;51.428;6.682;2022-11-20T07:28:08;24.97;;;22.37;;
11797;SDS011;5956;51.428;6.682;2022-11-20T07:30:38;27.90;;;22.37;;
11797;SDS011;5956;51.428;6.682;2022-11-20T07:33:05;27.70;;;22.83;;
11797;SDS011;5956;51.428;6.682;2022-11-20T07:35:34;23.73;;;21.23;;
11797;SDS011;5956;51.428;6.682;2022-11-20T07:38:01;28.50;;;22.57;;
11797;SDS011;5956;51.428;6.682;2022-11-20T07:40:27;27.43;;;22.20;;
11797;SDS011;5956;51.428;6.682;2022-11-20T07:42:54;29.63;;;22.57;;
11797;SDS011;5956;51.428;6.682;2022-11-20T07:45:22;26.50;;;22.03;;
11797;SDS011;5956;51.428;6.682;2022-11-20T07:47:48;27.37;;;22.67;;
11797;SDS011;5956;51.428;6.682;2022-11-20T07:50:15;27.13;;;22.10;;
11797;SDS011;5956;51.428;6.682;2022-11-20T07:52:43;27.67;;;23.33;;
11797;SDS011;5956;51.428;6.682;2022-11-20T07:55:10;26.07;;;21.57;;
11797;SDS011;5956;51.428;6.682;2022-11-20T07:57:41;23.57;;;21.00;;
11797;SDS011;5956;51.428;6.682;2022-11-20T08:00:09;22.90;;;20.40;;
11797;SDS011;5956;51.428;6.682;2022-11-20T08:02:36;24.90;;;21.57;;
11797;SDS011;5956;51.428;6.682;2022-11-20T08:05:03;24.70;;;21.13;;
11797;SDS011;5956;51.428;6.682;2022-11-20T08:07:34;24.67;;;21.60;;
11797;SDS011;5956;51.428;6.682;2022-11-20T08:10:02;25.07;;;22.30;;
11797;SDS011;5956;51.428;6.682;2022-11-20T08:12:29;24.77;;;22.10;;
11797;SDS011;5956;51.428;6.682;2022-11-20T08:15:12;24.50;;;21.90;;
11797;SDS011;5956;51.428;6.682;2022-11-20T08:17:39;25.50;;;21.47;;
11797;SDS011;5956;51.428;6.682;2022-11-20T08:20:06;24.40;;;21.70;;
11797;SDS011;5956;51.428;6.682;2022-11-20T08:22:32;25.87;;;21.73;;
11797;SDS011;5956;51.428;6.682;2022-11-20T08:24:59;22.47;;;20.07;;
11797;SDS011;5956;51.428;6.682;2022-11-20T08:27:35;24.77;;;21.83;;
11797;SDS011;5956;51.428;6.682;2022-11-20T08:30:02;23.30;;;20.37;;
11797;SDS011;5956;51.428;6.682;2022-11-20T08:32:29;23.43;;;20.80;;
11797;SDS011;5956;51.428;6.682;2022-11-20T08:34:57;22.27;;;19.93;;
11797;SDS011;5956;51.428;6.682;2022-11-20T08:37:23;21.87;;;19.43;;
11797;SDS011;5956;51.428;6.682;2022-11-20T08:39:50;19.87;;;17.90;;
11797;SDS011;5956;51.428;6.682;2022-11-20T08:42:18;23.70;;;21.00;;
11797;SDS011;5956;51.428;6.682;2022-11-20T08:44:46;21.73;;;19.43;;
11797;SDS011;5956;51.428;6.682;2022-11-20T08:47:13;21.13;;;18.80;;
11797;SDS011;5956;51.428;6.682;2022-11-20T08:49:39;21.20;;;19.10;;
11797;SDS011;5956;51.428;6.682;2022-11-20T08:52:06;21.17;;;18.93;;
11797;SDS011;5956;51.428;6.682;2022-11-20T08:54:32;24.17;;;21.40;;
11797;SDS011;5956;51.428;6.682;2022-11-20T08:57:00;27.27;;;23.80;;
11797;SDS011;5956;51.428;6.682;2022-11-20T08:59:26;29.20;;;23.20;;
11797;SDS011;5956;51.428;6.682;2022-11-20T09:01:55;27.13;;;23.43;;
11797;SDS011;5956;51.428;6.682;2022-11-20T09:04:21;25.27;;;21.77;;
11797;SDS011;5956;51.428;6.682;2022-11-20T09:06:48;23.17;;;20.80;;
11797;SDS011;5956;51.428;6.682;2022-11-20T09:09:18;21.77;;;19.07;;
11797;SDS011;5956;51.428;6.682;2022-11-20T09:11:45;20.47;;;18.37;;
11797;SDS011;5956;51.428;6.682;2022-11-20T09:14:11;19.17;;;17.17;;
11797;SDS011;5956;51.428;6.682;2022-11-20T09:16:38;22.47;;;19.23;;
11797;SDS011;5956;51.428;6.682;2022-11-20T09:19:05;21.10;;;18.90;;
11797;SDS011;5956;51.428;6.682;2022-11-20T09:21:32;23.63;;;19.70;;
11797;SDS011;5956;51.428;6.682;2022-11-20T09:23:58;20.87;;;18.67;;
11797;SDS011;5956;51.428;6.682;2022-11-20T09:26:25;23.60;;;20.00;;
11797;SDS011;5956;51.428;6.682;2022-11-20T09:28:51;21.07;;;18.87;;
11797;SDS011;5956;51.428;6.682;2022-11-20T09:31:19;22.30;;;19.77;;
11797;SDS011;5956;51.428;6.682;2022-11-20T09:33:51;22.63;;;19.40;;
11797;SDS011;5956;51.428;6.682;2022-11-20T09:36:57;22.30;;;19.10;;
11797;SDS011;5956;51.428;6.682;2022-11-20T09:39:48;21.73;;;18.93;;
11797;SDS011;5956;51.428;6.682;2022-11-20T09:42:26;23.30;;;19.80;;
11797;SDS011;5956;51.428;6.682;2022-11-20T09:45:03;15.93;;;13.47;;
11797;SDS011;5956;51.428;6.682;2022-11-20T09:47:37;22.43;;;20.03;;
11797;SDS011;5956;51.428;6.682;2022-11-20T09:50:14;23.47;;;20.03;;
11797;SDS011;5956;51.428;6.682;2022-11-20T09:52:48;20.63;;;17.67;;
11797;SDS011;5956;51.428;6.682;2022-11-20T09:55:20;19.10;;;17.03;;
11797;SDS011;5956;51.428;6.682;2022-11-20T09:57:47;19.90;;;17.90;;
11797;SDS011;5956;51.428;6.682;2022-11-20T10:00:15;20.13;;;17.10;;
11797;SDS011;5956;51.428;6.682;2022-11-20T10:02:42;22.70;;;19.00;;
11797;SDS011;5956;51.428;6.682;2022-11-20T10:05:13;21.90;;;18.80;;
11797;SDS011;5956;51.428;6.682;2022-11-20T10:07:43;22.37;;;18.17;;
11797;SDS011;5956;51.428;6.682;2022-11-20T10:10:15;22.20;;;18.70;;
11797;SDS011;5956;51.428;6.682;2022-11-20T10:12:48;21.60;;;19.37;;
11797;SDS011;5956;51.428;6.682;2022-11-20T10:15:22;21.33;;;18.27;;
11797;SDS011;5956;51.428;6.682;2022-11-20T10:17:58;22.97;;;19.53;;
11797;SDS011;5956;51.428;6.682;2022-11-20T10:20:28;21.77;;;19.17;;
11797;SDS011;5956;51.428;6.682;2022-11-20T10:23:06;24.00;;;20.03;;
11797;SDS011;5956;51.428;6.682;2022-11-20T10:25:41;22.23;;;19.93;;
11797;SDS011;5956;51.428;6.682;2022-11-20T10:28:12;22.90;;;20.30;;
11797;SDS011;5956;51.428;6.682;2022-11-20T10:30:42;23.83;;;20.07;;
11797;SDS011;5956;51.428;6.682;2022-11-20T10:33:11;22.97;;;19.47;;
11797;SDS011;5956;51.428;6.682;2022-11-20T10:35:41;21.17;;;18.93;;
11797;SDS011;5956;51.428;6.682;2022-11-20T10:38:12;18.37;;;16.47;;
11797;SDS011;5956;51.428;6.682;2022-11-20T10:40:42;22.63;;;20.20;;
11797;SDS011;5956;51.428;6.682;2022-11-20T10:43:11;25.53;;;20.00;;
11797;SDS011;5956;51.428;6.682;2022-11-20T10:45:43;22.30;;;19.67;;
11797;SDS011;5956;51.428;6.682;2022-11-20T10:48:12;21.60;;;19.13;;
11797;SDS011;5956;51.428;6.682;2022-11-20T10:50:42;22.60;;;18.83;;
11797;SDS011;5956;51.428;6.682;2022-11-20T10:53:14;27.80;;;20.13;;
11797;SDS011;5956;51.428;6.682;2022-11-20T10:55:45;22.67;;;20.03;;
11797;SDS011;5956;51.428;6.682;2022-11-20T10:58:13;22.73;;;19.43;;
11797;SDS011;5956;51.428;6.682;2022-11-20T11:00:43;21.80;;;19.43;;
11797;SDS011;5956;51.428;6.682;2022-11-20T11:03:14;21.57;;;19.27;;
11797;SDS011;5956;51.428;6.682;2022-11-20T11:05:48;25.03;;;19.73;;
11797;SDS011;5956;51.428;6.682;2022-11-20T11:08:16;23.27;;;19.37;;
11797;SDS011;5956;51.428;6.682;2022-11-20T11:10:46;24.17;;;19.20;;
11797;SDS011;5956;51.428;6.682;2022-11-20T11:13:20;22.73;;;18.53;;
11797;SDS011;5956;51.428;6.682;2022-11-20T11:15:47;21.07;;;18.77;;
11797;SDS011;5956;51.428;6.682;2022-11-20T11:18:22;21.17;;;17.57;;
11797;SDS011;5956;51.428;6.682;2022-11-20T11:20:49;22.23;;;17.27;;
11797;SDS011;5956;51.428;6.682;2022-11-20T11:23:22;21.80;;;18.07;;
11797;SDS011;5956;51.428;6.682;2022-11-20T11:25:57;20.17;;;18.07;;
11797;SDS011;5956;51.428;6.682;2022-11-20T11:28:25;23.23;;;18.47;;
11797;SDS011;5956;51.428;6.682;2022-11-20T11:30:53;22.23;;;18.90;;
11797;SDS011;5956;51.428;6.682;2022-11-20T11:33:20;22.00;;;18.13;;
11797;SDS011;5956;51.428;6.682;2022-11-20T11:35:47;22.73;;;18.97;;
11797;SDS011;5956;51.428;6.682;2022-11-20T11:38:16;22.70;;;19.27;;
11797;SDS011;5956;51.428;6.682;2022-11-20T11:40:43;22.80;;;19.47;;
11797;SDS011;5956;51.428;6.682;2022-11-20T11:43:18;21.60;;;17.73;;
11797;SDS011;5956;51.428;6.682;2022-11-20T11:46:04;21.63;;;18.53;;
11797;SDS011;5956;51.428;6.682;2022-11-20T11:48:35;24.57;;;19.47;;
11797;SDS011;5956;51.428;6.682;2022-11-20T11:51:01;24.37;;;19.30;;
11797;SDS011;5956;51.428;6.682;2022-11-20T11:53:28;22.57;;;18.87;;
11797;SDS011;5956;51.428;6.682;2022-11-20T11:55:56;26.53;;;20.83;;
11797;SDS011;5956;51.428;6.682;2022-11-20T11:58:38;21.03;;;17.93;;
11797;SDS011;5956;51.428;6.682;2022-11-20T12:01:09;24.60;;;19.40;;
11797;SDS011;5956;51.428;6.682;2022-11-20T12:03:37;24.50;;;19.97;;
11797;SDS011;5956;51.428;6.682;2022-11-20T12:06:08;21.30;;;18.43;;
11797;SDS011;5956;51.428;6.682;2022-11-20T12:08:38;21.80;;;16.77;;
11797;SDS011;5956;51.428;6.682;2022-11-20T12:11:11;22.23;;;18.30;;
11797;SDS011;5956;51.428;6.682;2022-11-20T12:13:44;21.67;;;17.67;;
11797;SDS011;5956;51.428;6.682;2022-11-20T12:16:12;21.67;;;17.70;;
11797;SDS011;5956;51.428;6.682;2022-11-20T12:18:40;25.53;;;17.73;;
11797;SDS011;5956;51.428;6.682;2022-11-20T12:21:17;24.83;;;18.80;;
11797;SDS011;5956;51.428;6.682;2022-11-20T12:23:53;21.63;;;17.67;;
11797;SDS011;5956;51.428;6.682;2022-11-20T12:26:27;21.87;;;17.47;;
11797;SDS011;5956;51.428;6.682;2022-11-20T12:29:04;24.87;;;18.30;;
11797;SDS011;5956;51.428;6.682;2022-11-20T12:31:42;19.97;;;16.70;;
11797;SDS011;5956;51.428;6.682;2022-11-20T12:34:13;25.43;;;18.07;;
11797;SDS011;5956;51.428;6.682;2022-11-20T12:36:47;21.13;;;17.83;;
11797;SDS011;5956;51.428;6.682;2022-11-20T12:39:22;23.67;;;18.07;;
11797;SDS011;5956;51.428;6.682;2022-11-20T12:41:55;20.00;;;17.57;;
11797;SDS011;5956;51.428;6.682;2022-11-20T12:44:52;22.57;;;17.90;;
11797;SDS011;5956;51.428;6.682;2022-11-20T12:47:38;29.63;;;18.03;;
11797;SDS011;5956;51.428;6.682;2022-11-20T12:50:13;20.63;;;16.00;;
11797;SDS011;5956;51.428;6.682;2022-11-20T12:52:44;21.93;;;17.37;;
11797;SDS011;5956;51.428;6.682;2022-11-20T12:55:16;19.60;;;17.10;;
11797;SDS011;5956;51.428;6.682;2022-11-20T12:57:50;24.60;;;20.27;;
11797;SDS011;5956;51.428;6.682;2022-11-20T13:00:20;26.47;;;21.10;;
11797;SDS011;5956;51.428;6.682;2022-11-20T13:05:35;18.60;;;16.00;;
11797;SDS011;5956;51.428;6.682;2022-11-20T13:08:03;22.83;;;16.90;;
11797;SDS011;5956;51.428;6.682;2022-11-20T13:10:31;17.33;;;14.50;;
11797;SDS011;5956;51.428;6.682;2022-11-20T13:13:01;22.67;;;16.80;;
11797;SDS011;5956;51.428;6.682;2022-11-20T13:15:35;20.47;;;16.73;;
11797;SDS011;5956;51.428;6.682;2022-11-20T13:18:07;17.97;;;16.07;;
11797;SDS011;5956;51.428;6.682;2022-11-20T13:20:34;17.45;;;14.30;;
11797;SDS011;5956;51.428;6.682;2022-11-20T13:23:04;18.77;;;16.87;;
11797;SDS011;5956;51.428;6.682;2022-11-20T13:25:36;16.57;;;14.77;;
11797;SDS011;5956;51.428;6.682;2022-11-20T13:30:51;19.33;;;16.20;;
11797;SDS011;5956;51.428;6.682;2022-11-20T13:33:22;21.43;;;18.70;;
11797;SDS011;5956;51.428;6.682;2022-11-20T13:35:54;17.70;;;12.73;;
11797;SDS011;5956;51.428;6.682;2022-11-20T13:38:21;19.87;;;17.50;;
11797;SDS011;5956;51.428;6.682;2022-11-20T13:40:52;19.90;;;17.37;;
11797;SDS011;5956;51.428;6.682;2022-11-20T13:43:22;20.87;;;18.67;;
11797;SDS011;5956;51.428;6.682;2022-11-20T13:46:06;20.20;;;18.07;;
11797;SDS011;5956;51.428;6.682;2022-11-20T13:48:38;21.27;;;18.60;;
11797;SDS011;5956;51.428;6.682;2022-11-20T13:51:18;20.10;;;17.93;;
11797;SDS011;5956;51.428;6.682;2022-11-20T13:56:37;21.23;;;18.57;;
11797;SDS011;5956;51.428;6.682;2022-11-20T13:59:14;20.07;;;17.23;;
11797;SDS011;5956;51.428;6.682;2022-11-20T14:01:44;21.77;;;19.37;;
11797;SDS011;5956;51.428;6.682;2022-11-20T14:04:24;22.70;;;18.77;;
11797;SDS011;5956;51.428;6.682;2022-11-20T14:06:52;34.50;;;26.57;;
11797;SDS011;5956;51.428;6.682;2022-11-20T14:09:28;25.87;;;21.60;;
11797;SDS011;5956;51.428;6.682;2022-11-20T14:11:55;22.97;;;20.03;;
11797;SDS011;5956;51.428;6.682;2022-11-20T14:14:22;25.30;;;19.90;;
11797;SDS011;5956;51.428;6.682;2022-11-20T14:17:04;26.47;;;20.50;;
11797;SDS011;5956;51.428;6.682;2022-11-20T14:19:33;29.50;;;24.73;;
11797;SDS011;5956;51.428;6.682;2022-11-20T14:22:10;33.93;;;29.73;;
11797;SDS011;5956;51.428;6.682;2022-11-20T14:24:41;27.77;;;23.67;;
11797;SDS011;5956;51.428;6.682;2022-11-20T14:27:11;26.17;;;21.17;;
11797;SDS011;5956;51.428;6.682;2022-11-20T14:29:38;27.23;;;22.97;;
11797;SDS011;5956;51.428;6.682;2022-11-20T14:32:08;26.90;;;21.90;;
11797;SDS011;5956;51.428;6.682;2022-11-20T14:34:37;28.43;;;24.13;;
11797;SDS011;5956;51.428;6.682;2022-11-20T14:37:05;26.57;;;22.07;;
11797;SDS011;5956;51.428;6.682;2022-11-20T14:39:36;25.50;;;22.67;;
11797;SDS011;5956;51.428;6.682;2022-11-20T14:42:10;25.30;;;22.30;;
11797;SDS011;5956;51.428;6.682;2022-11-20T14:44:40;32.67;;;27.60;;
11797;SDS011;5956;51.428;6.682;2022-11-20T14:47:10;24.70;;;21.83;;
11797;SDS011;5956;51.428;6.682;2022-11-20T14:49:37;35.93;;;31.67;;
11797;SDS011;5956;51.428;6.682;2022-11-20T14:52:10;28.13;;;24.00;;
11797;SDS011;5956;51.428;6.682;2022-11-20T14:54:43;26.00;;;22.27;;